createdAt,value
2023-03-14T00:01:15.689Z,12.80
2023-03-14T00:03:42.504Z,12.60
2023-03-14T00:06:10.386Z,12.60
2023-03-14T00:08:37.477Z,12.40
2023-03-14T00:11:15.719Z,12.30
2023-03-14T00:13:42.937Z,12.30
2023-03-14T00:16:12.431Z,12.20
2023-03-14T00:18:40.166Z,12.00
2023-03-14T00:21:08.474Z,11.90
2023-03-14T00:23:37.598Z,11.90
2023-03-14T00:26:07.282Z,11.90
2023-03-14T00:28:34.295Z,11.80
2023-03-14T00:31:07.299Z,11.90
2023-03-14T00:33:34.622Z,12.00
2023-03-14T00:36:10.067Z,12.00
2023-03-14T00:38:38.972Z,11.90
2023-03-14T00:41:07.838Z,11.80
2023-03-14T00:43:34.510Z,11.70
2023-03-14T00:46:01.577Z,11.70
2023-03-14T00:48:29.169Z,11.70
2023-03-14T00:50:55.865Z,11.60
2023-03-14T00:53:22.767Z,11.40
2023-03-14T00:55:49.878Z,11.30
2023-03-14T00:58:18.005Z,11.20
2023-03-14T01:00:48.512Z,11.30
2023-03-14T01:03:16.036Z,11.40
2023-03-14T01:05:43.102Z,11.50
2023-03-14T01:08:10.161Z,11.50
2023-03-14T01:10:40.394Z,11.60
2023-03-14T01:13:07.393Z,11.70
2023-03-14T01:15:38.056Z,11.70
2023-03-14T01:18:05.406Z,11.70
2023-03-14T01:20:32.163Z,11.70
2023-03-14T01:22:59.167Z,11.50
2023-03-14T01:25:25.924Z,11.30
2023-03-14T01:27:52.694Z,11.00
2023-03-14T01:30:19.616Z,10.90
2023-03-14T01:32:46.665Z,10.80
2023-03-14T01:35:13.691Z,10.80
2023-03-14T01:37:40.845Z,10.90
2023-03-14T01:40:14.979Z,11.00
2023-03-14T01:42:56.044Z,11.00
2023-03-14T01:46:01.172Z,11.10
2023-03-14T01:48:33.486Z,11.20
2023-03-14T01:51:01.764Z,11.30
2023-03-14T01:53:29.551Z,11.30
2023-03-14T01:55:59.629Z,11.40
2023-03-14T01:58:28.750Z,11.30
2023-03-14T02:00:58.256Z,11.30
2023-03-14T02:03:26.011Z,11.30
2023-03-14T02:05:57.716Z,11.30
2023-03-14T02:08:25.379Z,11.30
2023-03-14T02:10:56.610Z,11.30
2023-03-14T02:13:41.734Z,11.30
2023-03-14T02:16:27.373Z,11.20
2023-03-14T02:19:12.693Z,11.20
2023-03-14T02:22:01.103Z,11.30
2023-03-14T02:24:46.008Z,11.30
2023-03-14T02:27:16.351Z,11.40
2023-03-14T02:29:56.294Z,11.40
2023-03-14T02:32:25.846Z,11.40
2023-03-14T02:34:58.446Z,11.40
2023-03-14T02:37:39.879Z,11.40
2023-03-14T02:40:07.604Z,11.40
2023-03-14T02:42:35.317Z,11.40
2023-03-14T02:45:09.571Z,11.30
2023-03-14T02:48:12.570Z,11.30
2023-03-14T02:50:40.124Z,11.30
2023-03-14T02:53:06.946Z,11.30
2023-03-14T02:55:33.771Z,11.20
2023-03-14T02:58:05.489Z,11.20
2023-03-14T03:00:32.216Z,11.00
2023-03-14T03:02:59.221Z,10.90
2023-03-14T03:05:25.954Z,10.90
2023-03-14T03:07:52.699Z,10.80
2023-03-14T03:10:19.654Z,10.60
2023-03-14T03:12:47.083Z,10.70
2023-03-14T03:15:13.789Z,10.60
2023-03-14T03:17:40.726Z,10.40
2023-03-14T03:20:10.082Z,10.20
2023-03-14T03:22:37.942Z,10.10
2023-03-14T03:25:06.212Z,9.90
2023-03-14T03:27:34.799Z,9.80
2023-03-14T03:30:02.675Z,9.70
2023-03-14T03:32:32.826Z,9.60
2023-03-14T03:34:59.601Z,9.60
2023-03-14T03:37:26.412Z,9.50
2023-03-14T03:39:53.312Z,9.40
2023-03-14T03:42:20.296Z,9.40
2023-03-14T03:44:48.293Z,9.30
2023-03-14T03:47:15.303Z,9.20
2023-03-14T03:49:42.039Z,9.20
2023-03-14T03:52:11.077Z,9.10
2023-03-14T03:54:37.894Z,9.00
2023-03-14T03:57:04.630Z,9.00
2023-03-14T03:59:31.304Z,9.00
2023-03-14T04:02:29.971Z,8.90
2023-03-14T04:04:56.957Z,8.90
2023-03-14T04:07:23.897Z,8.90
2023-03-14T04:09:50.739Z,8.80
2023-03-14T04:12:46.786Z,8.80
2023-03-14T04:15:19.384Z,8.80
2023-03-14T04:17:49.107Z,8.70
2023-03-14T04:20:16.569Z,8.70
2023-03-14T04:22:44.623Z,8.70
2023-03-14T04:25:11.989Z,8.70
2023-03-14T04:27:43.242Z,8.70
2023-03-14T04:30:18.508Z,8.70
2023-03-14T04:32:53.112Z,8.70
2023-03-14T04:35:21.307Z,8.60
2023-03-14T04:37:50.053Z,8.60
2023-03-14T04:40:18.846Z,8.60
2023-03-14T04:42:46.478Z,8.60
2023-03-14T04:45:14.071Z,8.50
2023-03-14T04:47:42.367Z,8.50
2023-03-14T04:50:12.633Z,8.40
2023-03-14T04:52:39.627Z,8.40
2023-03-14T04:55:06.713Z,8.30
2023-03-14T04:57:33.424Z,8.10
2023-03-14T05:00:00.126Z,8.10
2023-03-14T05:02:45.734Z,8.10
2023-03-14T05:05:30.422Z,8.10
2023-03-14T05:08:16.268Z,8.10
2023-03-14T05:11:03.950Z,8.10
2023-03-14T05:13:50.454Z,8.00
2023-03-14T05:16:34.194Z,8.10
2023-03-14T05:19:23.952Z,8.00
2023-03-14T05:22:09.377Z,8.10
2023-03-14T05:24:59.990Z,8.10
2023-03-14T05:27:44.986Z,8.10
2023-03-14T05:30:47.581Z,8.10
2023-03-14T05:33:43.366Z,8.10
2023-03-14T05:36:36.207Z,8.10
2023-03-14T05:39:21.181Z,8.10
2023-03-14T05:42:06.588Z,8.00
2023-03-14T05:44:52.382Z,8.00
2023-03-14T05:47:46.475Z,8.00
2023-03-14T05:50:31.956Z,8.10
2023-03-14T05:53:16.726Z,8.10
2023-03-14T05:56:14.095Z,8.10
2023-03-14T05:58:56.617Z,8.00
2023-03-14T06:01:35.892Z,8.00
2023-03-14T06:04:17.173Z,8.00
2023-03-14T06:06:48.070Z,8.00
2023-03-14T06:09:16.254Z,7.90
2023-03-14T06:11:43.941Z,8.00
2023-03-14T06:14:11.301Z,8.00
2023-03-14T06:16:41.893Z,8.00
2023-03-14T06:19:09.590Z,8.00
2023-03-14T06:21:37.720Z,8.00
2023-03-14T06:24:05.142Z,8.00
2023-03-14T06:26:36.236Z,8.00
2023-03-14T06:29:04.432Z,8.10
2023-03-14T06:31:53.698Z,8.00
2023-03-14T06:34:20.769Z,8.00
2023-03-14T06:36:47.509Z,8.00
2023-03-14T06:39:14.998Z,8.00
2023-03-14T06:41:46.373Z,8.00
2023-03-14T06:44:13.068Z,8.00
2023-03-14T06:46:39.988Z,8.00
2023-03-14T06:49:06.784Z,8.10
2023-03-14T06:51:34.927Z,8.10
2023-03-14T06:54:04.191Z,8.10
2023-03-14T06:56:31.231Z,8.10
2023-03-14T06:58:58.644Z,8.10
2023-03-14T07:01:30.669Z,8.10
2023-03-14T07:04:05.740Z,8.10
2023-03-14T07:06:34.552Z,8.00
2023-03-14T07:09:03.027Z,8.10
2023-03-14T07:11:30.835Z,8.10
2023-03-14T07:13:57.836Z,8.00
2023-03-14T07:16:25.498Z,8.00
2023-03-14T07:18:53.034Z,8.00
2023-03-14T07:21:19.781Z,8.00
2023-03-14T07:23:46.502Z,8.00
2023-03-14T07:26:14.251Z,8.00
2023-03-14T07:28:46.852Z,8.00
2023-03-14T07:31:17.155Z,8.00
2023-03-14T07:33:44.120Z,7.90
2023-03-14T07:36:11.167Z,7.80
2023-03-14T07:38:39.351Z,7.80
2023-03-14T07:41:16.547Z,7.80
2023-03-14T07:44:06.135Z,7.70
2023-03-14T07:46:32.862Z,7.80
2023-03-14T07:48:59.579Z,7.70
2023-03-14T07:51:26.238Z,7.70
2023-03-14T07:53:52.894Z,7.60
2023-03-14T07:56:19.543Z,7.70
2023-03-14T07:58:46.209Z,7.60
2023-03-14T08:01:12.897Z,7.70
2023-03-14T08:03:39.648Z,7.70
2023-03-14T08:06:06.659Z,7.70
2023-03-14T08:08:33.368Z,7.70
2023-03-14T08:11:09.362Z,7.70
2023-03-14T08:13:37.395Z,7.80
2023-03-14T08:16:05.120Z,7.70
2023-03-14T08:18:32.119Z,7.70
2023-03-14T08:20:58.997Z,7.80
2023-03-14T08:23:25.874Z,7.80
2023-03-14T08:25:52.952Z,7.80
2023-03-14T08:28:19.989Z,7.90
2023-03-14T08:30:47.841Z,7.90
2023-03-14T08:33:14.724Z,7.80
2023-03-14T08:35:41.501Z,7.80
2023-03-14T08:38:08.252Z,7.70
2023-03-14T08:40:34.949Z,7.70
2023-03-14T08:43:01.662Z,7.70
2023-03-14T08:45:28.394Z,7.70
2023-03-14T08:47:55.041Z,7.70
2023-03-14T08:50:21.875Z,7.70
2023-03-14T08:52:48.601Z,7.70
2023-03-14T08:55:15.375Z,7.80
2023-03-14T08:57:42.234Z,7.80
2023-03-14T09:00:13.372Z,7.80
2023-03-14T09:02:40.065Z,7.80
2023-03-14T09:05:07.665Z,7.80
2023-03-14T09:07:34.434Z,7.80
2023-03-14T09:10:01.098Z,7.80
2023-03-14T09:12:27.924Z,7.80
2023-03-14T09:14:54.792Z,7.80
2023-03-14T09:17:21.540Z,7.80
2023-03-14T09:19:48.240Z,7.80
2023-03-14T09:22:14.955Z,7.70
2023-03-14T09:24:42.324Z,7.70
2023-03-14T09:27:08.993Z,7.60
2023-03-14T09:29:35.879Z,7.50
2023-03-14T09:32:02.663Z,7.30
2023-03-14T09:34:29.404Z,7.10
2023-03-14T09:36:56.138Z,7.00
2023-03-14T09:39:22.806Z,7.00
2023-03-14T09:41:51.994Z,7.00
2023-03-14T09:44:38.615Z,7.00
2023-03-14T09:47:12.894Z,7.00
2023-03-14T09:49:41.819Z,7.00
2023-03-14T09:52:32.878Z,6.80
2023-03-14T09:55:13.278Z,6.70
2023-03-14T09:57:42.074Z,6.60
2023-03-14T10:00:24.242Z,6.70
2023-03-14T10:03:03.181Z,6.60
2023-03-14T10:05:30.656Z,6.50
2023-03-14T10:07:57.455Z,6.50
2023-03-14T10:10:26.112Z,6.40
2023-03-14T10:13:02.779Z,6.50
2023-03-14T10:15:34.805Z,6.50
2023-03-14T10:18:04.250Z,6.60
2023-03-14T10:20:39.984Z,6.60
2023-03-14T10:23:22.856Z,6.60
2023-03-14T10:26:15.719Z,6.60
2023-03-14T10:28:52.421Z,6.60
2023-03-14T10:31:19.347Z,6.80
2023-03-14T10:34:04.096Z,6.80
2023-03-14T10:36:33.142Z,6.90
2023-03-14T10:39:23.397Z,6.90
2023-03-14T10:41:53.528Z,7.00
2023-03-14T10:44:24.436Z,7.00
2023-03-14T10:47:01.873Z,7.00
2023-03-14T10:49:37.259Z,6.90
2023-03-14T10:52:45.666Z,6.90
2023-03-14T10:55:15.032Z,6.80
2023-03-14T10:57:42.866Z,6.90
2023-03-14T11:00:18.104Z,6.90
2023-03-14T11:03:09.167Z,6.90
2023-03-14T11:05:50.474Z,6.90
2023-03-14T11:08:43.082Z,7.00
2023-03-14T11:11:24.380Z,7.10
2023-03-14T11:14:10.095Z,7.30
2023-03-14T11:16:45.913Z,7.20
2023-03-14T11:19:27.659Z,7.30
2023-03-14T11:22:21.251Z,7.40
2023-03-14T11:25:03.132Z,7.60
2023-03-14T11:27:45.851Z,7.90
2023-03-14T11:30:36.128Z,8.10
2023-03-14T11:33:14.914Z,8.30
2023-03-14T11:36:00.396Z,8.60
2023-03-14T11:38:32.093Z,8.70
2023-03-14T11:40:59.945Z,8.90
2023-03-14T11:43:36.031Z,8.80
2023-03-14T11:46:18.632Z,8.80
2023-03-14T11:49:26.685Z,9.10
2023-03-14T11:52:03.964Z,9.50
2023-03-14T11:54:50.778Z,9.70
2023-03-14T11:57:22.839Z,9.90
2023-03-14T12:00:17.185Z,9.80
2023-03-14T12:02:59.820Z,9.70
2023-03-14T12:05:56.367Z,9.90
2023-03-14T12:08:44.574Z,9.90
2023-03-14T12:11:35.168Z,9.80
2023-03-14T12:14:02.334Z,9.70
2023-03-14T12:16:41.245Z,9.90
2023-03-14T12:19:21.683Z,10.00
2023-03-14T12:21:55.748Z,10.20
2023-03-14T12:24:32.910Z,10.20
2023-03-14T12:27:02.541Z,10.40
2023-03-14T12:29:30.994Z,10.40
2023-03-14T12:32:21.375Z,10.50
2023-03-14T12:34:48.238Z,10.40
2023-03-14T12:37:24.255Z,10.30
2023-03-14T12:40:21.348Z,10.50
2023-03-14T12:42:59.284Z,10.60
2023-03-14T12:45:26.945Z,10.70
2023-03-14T12:48:22.663Z,10.70
2023-03-14T12:50:57.426Z,10.70
2023-03-14T12:53:33.099Z,10.80
2023-03-14T12:56:21.900Z,10.70
2023-03-14T12:59:10.838Z,10.70
2023-03-14T13:01:37.672Z,10.70
2023-03-14T13:04:10.942Z,10.70
2023-03-14T13:07:01.637Z,10.60
2023-03-14T13:09:34.104Z,10.60
2023-03-14T13:12:12.593Z,10.80
2023-03-14T13:14:46.458Z,10.90
2023-03-14T13:17:36.127Z,11.10
2023-03-14T13:20:10.768Z,11.00
2023-03-14T13:22:39.255Z,10.70
2023-03-14T13:25:11.899Z,10.50
2023-03-14T13:27:39.079Z,10.30
2023-03-14T13:30:27.558Z,10.20
2023-03-14T13:32:54.989Z,9.90
2023-03-14T13:35:25.986Z,9.80
2023-03-14T13:38:11.517Z,9.70
2023-03-14T13:40:39.186Z,9.80
2023-03-14T13:43:26.101Z,9.70
2023-03-14T13:46:07.860Z,9.70
2023-03-14T13:48:50.748Z,9.80
2023-03-14T13:51:22.077Z,10.00
2023-03-14T13:53:53.898Z,10.10
2023-03-14T13:56:27.095Z,10.10
2023-03-14T13:58:54.001Z,10.10
2023-03-14T14:01:33.249Z,10.10
2023-03-14T14:04:07.916Z,10.20
2023-03-14T14:06:39.694Z,10.10
2023-03-14T14:09:17.050Z,10.00
2023-03-14T14:12:14.418Z,10.00
2023-03-14T14:14:58.024Z,10.20
2023-03-14T14:17:33.470Z,10.30
2023-03-14T14:20:04.254Z,10.30
2023-03-14T14:22:31.555Z,10.30
2023-03-14T14:24:58.233Z,10.30
2023-03-14T14:27:38.751Z,10.10
2023-03-14T14:30:25.151Z,9.70
2023-03-14T14:32:52.607Z,9.50
2023-03-14T14:35:36.610Z,9.30
2023-03-14T14:38:10.314Z,9.30
2023-03-14T14:40:46.463Z,9.20
2023-03-14T14:43:19.654Z,9.20
2023-03-14T14:45:48.598Z,9.10
2023-03-14T14:48:15.393Z,9.00
2023-03-14T14:50:47.994Z,9.00
2023-03-14T14:53:24.808Z,9.00
2023-03-14T14:55:57.091Z,9.00
2023-03-14T14:58:40.963Z,8.90
2023-03-14T15:01:22.719Z,8.90
2023-03-14T15:03:52.457Z,8.80
2023-03-14T15:06:19.860Z,9.00
2023-03-14T15:08:48.604Z,9.00
2023-03-14T15:11:23.539Z,9.00
2023-03-14T15:13:54.223Z,9.00
2023-03-14T15:16:23.588Z,8.90
2023-03-14T15:19:21.538Z,8.80
2023-03-14T15:21:51.597Z,8.70
2023-03-14T15:24:18.253Z,8.60
2023-03-14T15:26:45.343Z,8.60
2023-03-14T15:29:13.495Z,8.50
2023-03-14T15:31:41.048Z,8.50
2023-03-14T15:34:07.802Z,8.50
2023-03-14T15:36:36.359Z,8.40
2023-03-14T15:39:04.566Z,8.40
2023-03-14T15:41:31.269Z,8.40
2023-03-14T15:43:58.108Z,8.40
2023-03-14T15:46:25.040Z,8.30
2023-03-14T15:48:52.803Z,8.40
2023-03-14T15:51:20.037Z,8.60
2023-03-14T15:53:47.277Z,8.80
2023-03-14T15:56:16.844Z,9.10
2023-03-14T15:58:47.420Z,9.30
2023-03-14T16:01:16.801Z,9.70
2023-03-14T16:03:45.892Z,10.00
2023-03-14T16:06:13.714Z,10.20
2023-03-14T16:08:40.766Z,10.30
2023-03-14T16:11:07.542Z,10.30
2023-03-14T16:13:34.242Z,10.30
2023-03-14T16:16:03.267Z,9.90
2023-03-14T16:18:32.160Z,9.80
2023-03-14T16:21:01.012Z,9.50
2023-03-14T16:23:29.140Z,9.40
2023-03-14T16:25:57.258Z,9.30
2023-03-14T16:28:24.694Z,9.10
2023-03-14T16:30:51.827Z,9.00
2023-03-14T16:33:19.069Z,9.00
2023-03-14T16:35:56.778Z,8.90
2023-03-14T16:38:24.697Z,8.80
2023-03-14T16:41:06.442Z,8.70
2023-03-14T16:43:33.996Z,8.60
2023-03-14T16:46:01.321Z,8.40
2023-03-14T16:48:28.392Z,8.20
2023-03-14T16:50:55.391Z,8.20
2023-03-14T16:53:22.861Z,7.80
2023-03-14T16:55:51.445Z,7.70
2023-03-14T16:58:18.524Z,7.60
2023-03-14T17:00:46.439Z,7.60
2023-03-14T17:03:13.487Z,7.50
2023-03-14T17:05:46.809Z,7.60
2023-03-14T17:08:13.894Z,7.60
2023-03-14T17:10:40.647Z,7.60
2023-03-14T17:13:07.477Z,7.50
2023-03-14T17:15:34.217Z,7.50
2023-03-14T17:18:02.978Z,7.60
2023-03-14T17:20:30.326Z,7.60
2023-03-14T17:22:56.962Z,7.70
2023-03-14T17:25:23.663Z,7.60
2023-03-14T17:27:50.290Z,7.60
2023-03-14T17:30:17.353Z,7.60
2023-03-14T17:32:44.071Z,7.50
2023-03-14T17:35:10.842Z,7.40
2023-03-14T17:37:37.697Z,7.40
2023-03-14T17:40:05.153Z,7.30
2023-03-14T17:42:31.799Z,7.30
2023-03-14T17:44:58.773Z,7.20
2023-03-14T17:47:25.465Z,7.20
2023-03-14T17:49:52.151Z,7.20
2023-03-14T17:52:18.938Z,7.10
2023-03-14T17:54:45.619Z,7.20
2023-03-14T17:57:12.355Z,7.10
2023-03-14T17:59:39.190Z,7.00
2023-03-14T18:02:06.625Z,6.90
2023-03-14T18:04:33.532Z,6.90
2023-03-14T18:07:00.505Z,6.90
2023-03-14T18:09:27.176Z,6.90
2023-03-14T18:12:05.182Z,7.10
2023-03-14T18:14:34.813Z,7.50
2023-03-14T18:17:01.478Z,7.60
2023-03-14T18:19:28.141Z,7.50
2023-03-14T18:21:54.841Z,7.30
2023-03-14T18:24:22.061Z,7.10
2023-03-14T18:26:48.749Z,6.90
2023-03-14T18:29:15.482Z,6.90
2023-03-14T18:31:43.029Z,6.90
2023-03-14T18:34:10.831Z,6.90
2023-03-14T18:36:38.088Z,6.90
2023-03-14T18:39:06.934Z,6.90
2023-03-14T18:41:35.067Z,6.90
2023-03-14T18:44:02.465Z,6.80
2023-03-14T18:46:29.767Z,6.70
2023-03-14T18:48:56.766Z,6.70
2023-03-14T18:51:31.355Z,6.70
2023-03-14T18:54:08.460Z,6.60
2023-03-14T18:56:36.505Z,6.50
2023-03-14T18:59:03.218Z,6.60
2023-03-14T19:01:34.050Z,6.60
2023-03-14T19:04:01.721Z,6.50
2023-03-14T19:06:32.284Z,6.30
2023-03-14T19:08:59.272Z,6.30
2023-03-14T19:11:26.732Z,6.20
2023-03-14T19:13:54.938Z,6.20
2023-03-14T19:16:25.192Z,6.20
2023-03-14T19:18:52.287Z,6.20
2023-03-14T19:21:34.252Z,6.10
2023-03-14T19:24:02.097Z,6.00
2023-03-14T19:26:31.002Z,6.00
2023-03-14T19:28:57.820Z,6.00
2023-03-14T19:31:25.725Z,6.10
2023-03-14T19:33:52.931Z,5.80
2023-03-14T19:36:31.233Z,5.70
2023-03-14T19:39:01.825Z,5.70
2023-03-14T19:41:29.383Z,5.60
2023-03-14T19:43:56.391Z,5.50
2023-03-14T19:46:24.094Z,5.40
2023-03-14T19:48:54.276Z,5.30
2023-03-14T19:51:22.203Z,5.20
2023-03-14T19:53:49.560Z,5.10
2023-03-14T19:56:16.168Z,5.10
2023-03-14T19:58:43.650Z,5.10
2023-03-14T20:01:12.687Z,5.20
2023-03-14T20:03:39.676Z,5.20
2023-03-14T20:06:08.265Z,5.20
2023-03-14T20:08:35.330Z,5.20
2023-03-14T20:11:06.670Z,5.20
2023-03-14T20:13:33.468Z,5.20
2023-03-14T20:16:00.445Z,5.20
2023-03-14T20:18:27.160Z,5.10
2023-03-14T20:20:53.890Z,5.10
2023-03-14T20:23:20.625Z,5.10
2023-03-14T20:25:55.415Z,5.10
2023-03-14T20:28:22.189Z,5.20
2023-03-14T20:30:48.941Z,5.20
2023-03-14T20:33:18.412Z,5.20
2023-03-14T20:35:58.968Z,5.10
2023-03-14T20:38:27.109Z,5.10
2023-03-14T20:40:59.141Z,5.00
2023-03-14T20:43:26.537Z,5.00
2023-03-14T20:45:55.238Z,5.00
2023-03-14T20:48:22.542Z,5.10
2023-03-14T20:50:49.382Z,5.00
2023-03-14T20:53:16.927Z,5.10
2023-03-14T20:55:43.634Z,5.20
2023-03-14T20:58:13.500Z,5.20
2023-03-14T21:00:44.640Z,5.20
2023-03-14T21:03:11.355Z,5.30
2023-03-14T21:05:41.835Z,5.30
2023-03-14T21:08:08.560Z,5.30
2023-03-14T21:10:35.234Z,5.30
2023-03-14T21:13:01.917Z,5.30
2023-03-14T21:15:28.578Z,5.20
2023-03-14T21:17:55.765Z,5.20
2023-03-14T21:20:25.932Z,5.20
2023-03-14T21:22:53.328Z,5.10
2023-03-14T21:25:19.994Z,5.10
2023-03-14T21:27:46.649Z,5.10
2023-03-14T21:30:13.730Z,5.20
2023-03-14T21:32:40.449Z,5.20
2023-03-14T21:35:07.461Z,5.20
2023-03-14T21:37:34.147Z,5.20
2023-03-14T21:40:00.898Z,5.10
2023-03-14T21:42:27.938Z,5.10
2023-03-14T21:44:54.601Z,5.00
2023-03-14T21:47:23.432Z,5.00
2023-03-14T21:49:51.400Z,5.10
2023-03-14T21:52:18.205Z,5.10
2023-03-14T21:54:44.972Z,5.10
2023-03-14T21:57:14.261Z,5.10
2023-03-14T21:59:41.908Z,5.10
2023-03-14T22:02:14.148Z,5.10
2023-03-14T22:04:40.928Z,5.10
2023-03-14T22:07:10.572Z,5.00
2023-03-14T22:09:40.195Z,4.90
2023-03-14T22:12:07.246Z,4.90
2023-03-14T22:14:34.387Z,4.80
2023-03-14T22:17:01.215Z,4.70
2023-03-14T22:19:28.050Z,4.60
2023-03-14T22:21:54.728Z,4.60
2023-03-14T22:24:21.615Z,4.60
2023-03-14T22:26:51.616Z,4.60
2023-03-14T22:29:18.332Z,4.60
2023-03-14T22:31:45.168Z,4.70
2023-03-14T22:34:12.084Z,4.70
2023-03-14T22:36:38.741Z,4.60
2023-03-14T22:39:06.509Z,4.60
2023-03-14T22:41:34.101Z,4.70
2023-03-14T22:44:01.438Z,4.60
2023-03-14T22:46:28.079Z,4.70
2023-03-14T22:48:54.749Z,4.70
2023-03-14T22:51:21.382Z,4.70
2023-03-14T22:53:49.163Z,4.70
2023-03-14T22:56:15.823Z,4.80
2023-03-14T22:58:42.475Z,5.40
2023-03-14T23:01:09.246Z,4.70
2023-03-14T23:03:35.968Z,4.60
2023-03-14T23:06:05.802Z,4.50
2023-03-14T23:08:33.365Z,4.30
2023-03-14T23:11:05.616Z,4.30
2023-03-14T23:13:33.403Z,4.40
2023-03-14T23:16:01.269Z,4.30
2023-03-14T23:18:29.443Z,4.30
2023-03-14T23:21:12.113Z,4.30
2023-03-14T23:23:39.629Z,4.20
2023-03-14T23:26:09.202Z,4.20
2023-03-14T23:28:36.287Z,4.20
2023-03-14T23:31:06.466Z,4.10
2023-03-14T23:33:34.327Z,4.00
2023-03-14T23:36:04.122Z,4.00
2023-03-14T23:38:32.801Z,4.00
2023-03-14T23:41:00.733Z,4.00
2023-03-14T23:43:28.449Z,4.00
2023-03-14T23:45:56.705Z,4.00
2023-03-14T23:48:29.040Z,3.80
2023-03-14T23:51:00.630Z,4.00
2023-03-14T23:53:29.005Z,3.90
2023-03-14T23:55:55.938Z,3.90
2023-03-14T23:58:23.511Z,3.90
